• Join FlightAware (Why Join?)
  • Login
  • US Flag 
08:48PM EDT


 

Airport Tracker/Info


-or-


 

Live Flight TrackerFlight Track Log ✈ N830QS ✈ 13-Jan-2014 ✈ KBWI - KTEB

Flight Track Log - Related Links

Times and Time Zones

All times are in EST time to prevent confusion due to time zone crossing. See the N830QS flight status page for this flight to view local times or setup timezone preferences in your user account.

Time Position Orientation Groundspeed Altitude Reporting Facility
EST Latitude Longitude Course Direction KTS MPH feet Rate Location/Type
07:50AM 39.2500 -76.6333 102° East 282 325 4,200  Level Potomac TRACON
07:51AM 39.2333 -76.5333 102° East 298 343 7,800 3,000 Climbing Potomac TRACON
07:53AM 39.1678 -76.2956 110° East 330 380 13,900 2,220 Climbing Washington Center
07:54AM 39.1869 -76.1753 78° East 312 359 15,000 540 Climbing Washington Center
07:55AM 39.2644 -76.0903 40° Northeast 312 359 15,000  Level Washington Center
07:56AM 39.3544 -76.0131 34° Northeast 337 388 15,000  Level Washington Center
07:57AM 39.4506 -75.9222 36° Northeast 369 425 15,000  Level Washington Center
07:58AM 39.5300 -75.8497 35° Northeast 380 437 15,000  Level Washington Center
07:59AM 39.6239 -75.7611 36° Northeast 380 437 15,000 -600 Level Washington Center
08:01AM 39.7667 -75.6333 35° Northeast 379 436 13,500 -780 Descending Philadelphia TRACON
08:02AM 39.8500 -75.5500 38° Northeast 364 419 13,000 -240 Descending Philadelphia TRACON
08:03AM 39.9500 -75.4667 33° Northeast 377 434 13,000  Level Philadelphia TRACON
08:04AM 40.0167 -75.4000 37° Northeast 374 430 13,000  Level Philadelphia TRACON
08:05AM 40.0833 -75.3333 37° Northeast 369 425 13,000 -480 Level Philadelphia TRACON
08:06AM 40.2000 -75.2333 33° Northeast 365 420 12,000 -1,260 Descending Philadelphia TRACON
08:08AM 40.3167 -75.1167 37° Northeast 316 364 9,600 -1,680 Descending New York TRACON
08:09AM 40.3667 -75.0500 45° Northeast 309 356 7,900 -1,380 Descending New York TRACON
08:10AM 40.4167 -74.9833 45° Northeast 293 337 7,000 -1,200 Descending New York TRACON
08:11AM 40.4667 -74.9000 52° Northeast 302 348 5,700 -1,440 Descending New York TRACON
08:12AM 40.5333 -74.8167 44° Northeast 290 334 4,200 -900 Descending New York TRACON
08:13AM 40.5833 -74.7333 52° Northeast 294 338 4,000 -120 Descending New York TRACON
08:13AM 40.6500 -74.6833 30° Northeast 293 337 4,000  Level New York TRACON
08:14AM 40.7167 -74.6333 30° Northeast 290 334 4,000  Level New York TRACON
08:15AM 40.7833 -74.5833 30° Northeast 288 331 4,000  Level New York TRACON
08:16AM 40.8500 -74.5333 30° Northeast 289 333 4,000 -480 Level New York TRACON
08:17AM 40.8833 -74.4667 57° Northeast 288 331 3,100 -540 Descending New York TRACON
08:18AM 40.9333 -74.3667 56° Northeast 287 330 3,000 -60 Descending New York TRACON
08:19AM 40.9833 -74.2833 52° Northeast 282 325 3,000 -420 Level New York TRACON
08:20AM 41.0167 -74.2000 62° Northeast 279 321 2,200 -540 Descending New York TRACON
08:21AM 41.0500 -74.1333 56° Northeast 225 259 2,000 -120 Descending New York TRACON
08:22AM 41.0333 -74.0667 108° East 201 231 2,000  Level New York TRACON
08:23AM 40.9833 -74.0500 166° South 186 214 2,000 -180 Level New York TRACON
08:24AM 40.9333 -74.0500 180° South 141 162 1,700 -480 Descending New York TRACON
08:25AM 40.9000 -74.0500 180° South 124 143 1,100 -660 Descending New York TRACON
08:26AM 40.8833 -74.0500 180° South 105 121 500 -600 Descending New York TRACON
08:28AM 40.8500 -74.0500 180° South  Level FlightAware Approximate
08:35AM 40.8501 -74.0608 180° South  Level Estimated